Zionville, North Carolina
Current Conditions -  °F | °C
As of 3:35 PM on Monday 22 Dec 2014 (Local Time) from KTNB Reporting Station
Haze Haze  
Wind Chill: 37°   Ceiling: 300
Heat Index: 37°   Visibility: 3mi
Dew Point: 37°   Wind: 3mph
Humidity: 100%   Direction: 110°ESE
Pressure: 29.98"   Gusts: NA
Location:  36.33°N, 81.74°W
Report Text: KTNB 222035Z AUTO 11003KT 3SM BR OVC003 03/03 A2998 RMK AO2 T00300030
Loading
Personal Weather Stations






























Interactive Weather Map New forecast layout! Learn more

10-Day Weather Forecast

Advertisements
Track Severe Weather on mobile